Time;durP1;ratioP1;P1;durP2;ratioP2;P2;SDS_P1;SDS_P2;PMS_P1;PMS_P2;Temp;Humidity;BMP_temperature;BMP_pressure;BME280_temperature;BME280_humidity;BME280_pressure;Samples;Min_cycle;Max_cycle;Signal;HPM_P1;HPM_P2
2021/11/13 00:03:17;;;;;;;39.20;20.90;;;;;;;3.13;87.86;99836.16;432582;1310;142254;-61
2021/11/13 00:13:24;;;;;;;34.10;19.70;;;;;;;3.13;87.84;99827.19;434776;1307;142260;-62
2021/11/13 00:23:29;;;;;;;;;;;;;;;3.07;87.58;99823.89;434368;1310;281662;-62
2021/11/13 00:33:35;;;;;;;32.60;20.10;;;;;;;3.05;87.45;99815.09;433534;1312;130294;-61
2021/11/13 00:43:41;;;;;;;32.60;18.40;;;;;;;3.07;87.17;99807.63;434864;1312;141460;-61
2021/11/13 00:53:47;;;;;;;38.60;21.70;;;;;;;2.99;86.86;99810.79;424890;1309;141706;-61
2021/11/13 01:03:54;;;;;;;36.70;20.40;;;;;;;2.85;86.88;99797.19;420808;1313;141040;-61
2021/11/13 01:14:00;;;;;;;33.70;21.00;;;;;;;2.77;87.00;99779.77;434801;1312;142544;-61
2021/11/13 01:24:06;;;;;;;43.70;23.00;;;;;;;2.74;86.94;99770.19;429655;1310;141831;-62
2021/11/13 01:34:12;;;;;;;37.40;22.00;;;;;;;2.78;86.93;99766.27;434916;1310;142541;-61
2021/11/13 01:44:18;;;;;;;30.40;18.40;;;;;;;2.77;86.75;99768.38;433306;1313;142152;-61
2021/11/13 01:54:24;;;;;;;32.50;18.90;;;;;;;2.74;86.60;99780.39;431976;1311;142197;-61
2021/11/13 02:04:30;;;;;;;33.40;22.30;;;;;;;2.73;86.82;99775.06;434792;1311;142898;-62
2021/11/13 02:14:36;;;;;;;42.50;23.60;;;;;;;2.72;86.83;99785.81;425108;1312;141961;-63
2021/11/13 02:24:46;;;;;;;35.80;21.60;;;;;;;2.64;86.97;99774.98;434783;1312;141435;-61
2021/11/13 02:34:51;;;;;;;40.40;24.10;;;;;;;2.54;86.87;99764.33;431260;1312;143129;-62
2021/11/13 02:44:58;;;;;;;50.80;28.00;;;;;;;2.53;86.97;99740.52;432727;1312;143182;-61
2021/11/13 02:55:04;;;;;;;42.90;24.90;;;;;;;2.54;86.80;99724.42;434526;1312;141676;-62
2021/11/13 03:05:25;;;;;;;40.60;22.20;;;;;;;2.46;86.89;99731.39;428008;1312;141264;-63
2021/11/13 03:15:31;;;;;;;38.50;22.10;;;;;;;2.40;86.94;99736.56;433059;1312;142386;-62
2021/11/13 03:25:42;;;;;;;34.00;21.20;;;;;;;2.34;86.75;99735.70;434710;1308;141944;-62
2021/11/13 03:35:48;;;;;;;42.50;23.60;;;;;;;2.31;86.89;99717.29;433299;1308;142313;-62
2021/11/13 03:45:54;;;;;;;39.50;24.10;;;;;;;2.31;86.90;99712.64;434699;1307;142243;-62
2021/11/13 03:56:00;;;;;;;39.60;23.30;;;;;;;2.30;87.21;99705.41;425134;1316;141856;-61
2021/11/13 04:06:07;;;;;;;42.60;24.60;;;;;;;2.28;87.08;99712.18;433165;1309;142024;-61
2021/11/13 04:16:13;;;;;;;39.30;22.00;;;;;;;2.25;87.23;99705.87;432756;1309;144517;-60
2021/11/13 04:26:19;;;;;;;42.50;24.10;;;;;;;2.30;87.36;99696.42;434060;1312;141409;-61
2021/11/13 04:36:26;;;;;;;38.80;23.30;;;;;;;2.35;87.43;99690.05;431648;1317;141959;-61
2021/11/13 04:46:32;;;;;;;44.20;25.10;;;;;;;2.34;87.31;99691.45;435179;1315;142773;-62
2021/11/13 04:56:38;;;;;;;34.20;19.70;;;;;;;2.29;87.23;99698.36;434363;1311;143182;-61
2021/11/13 05:06:44;;;;;;;34.40;20.40;;;;;;;2.27;87.23;99692.71;432913;1312;142340;-61
2021/11/13 05:16:50;;;;;;;35.70;20.20;;;;;;;2.26;87.17;99691.20;427518;1313;142021;-62
2021/11/13 05:26:56;;;;;;;40.10;24.00;;;;;;;2.27;87.15;99684.23;434124;1312;141597;-62
2021/11/13 05:37:02;;;;;;;35.70;21.40;;;;;;;2.32;87.48;99671.48;434602;1313;142472;-61
2021/11/13 05:47:08;;;;;;;37.40;24.70;;;;;;;2.33;87.25;99683.88;423489;1311;142195;-61
2021/11/13 05:57:14;;;;;;;39.90;24.80;;;;;;;2.30;87.43;99685.55;429280;1312;141675;-62
2021/11/13 06:07:32;;;;;;;39.80;22.80;;;;;;;2.29;87.56;99697.48;432623;1312;142726;-60
2021/11/13 06:17:39;;;;;;;40.70;21.90;;;;;;;2.29;87.66;99700.94;419376;1312;142930;-62
2021/11/13 06:27:46;;;;;;;36.20;22.70;;;;;;;2.24;87.64;99712.29;426187;1313;141149;-60
2021/11/13 06:37:51;;;;;;;42.00;24.80;;;;;;;2.27;87.78;99718.96;435189;1312;142993;-62
2021/11/13 06:47:57;;;;;;;42.90;25.30;;;;;;;2.33;87.73;99724.14;434467;1312;142655;-63
2021/11/13 06:58:03;;;;;;;38.00;27.00;;;;;;;2.43;87.81;99723.36;435193;1312;142236;-62
2021/11/13 07:08:08;;;;;;;39.20;23.70;;;;;;;2.52;87.82;99725.00;435220;1310;141989;-61
2021/11/13 07:18:14;;;;;;;37.90;26.20;;;;;;;2.70;87.53;99726.92;434519;1310;142174;-65
2021/11/13 07:28:32;;;;;;;34.10;23.00;;;;;;;2.83;87.40;99734.13;434063;1310;141878;-61
2021/11/13 07:38:39;;;;;;;38.60;24.60;;;;;;;2.99;87.58;99726.73;434433;1307;142902;-61
2021/11/13 07:48:45;;;;;;;38.10;23.60;;;;;;;3.38;87.22;99717.40;434005;1312;141771;-61
2021/11/13 07:58:55;;;;;;;34.00;23.80;;;;;;;3.69;86.52;99719.88;433972;1310;141992;-60
2021/11/13 08:09:01;;;;;;;34.40;23.80;;;;;;;3.77;86.06;99719.77;434479;1310;141762;-60
2021/11/13 08:19:07;;;;;;;36.70;23.50;;;;;;;3.75;85.66;99712.55;435015;1309;253791;-62
2021/11/13 08:29:12;;;;;;;35.50;24.70;;;;;;;3.86;86.01;99709.77;432797;1307;142605;-62
2021/11/13 08:39:18;;;;;;;32.10;21.00;;;;;;;3.93;84.88;99710.04;434371;1307;142384;-62
2021/11/13 08:49:25;;;;;;;32.10;21.50;;;;;;;3.88;84.94;99705.20;433831;1307;142617;-62
2021/11/13 08:59:31;;;;;;;33.70;23.10;;;;;;;3.85;84.84;99702.51;430959;1312;142034;-60
2021/11/13 09:09:38;;;;;;;37.10;25.60;;;;;;;4.09;84.87;99710.68;435029;1309;141315;-62
2021/11/13 09:19:44;;;;;;;33.80;22.90;;;;;;;4.32;84.50;99702.60;434312;1310;142049;-62
2021/11/13 09:29:50;;;;;;;30.00;22.90;;;;;;;4.63;84.30;99699.56;428978;1313;141706;-62
2021/11/13 09:39:58;;;;;;;32.50;22.40;;;;;;;4.68;83.02;99693.83;419880;1310;141417;-61
2021/11/13 09:50:05;;;;;;;31.60;23.60;;;;;;;4.74;83.12;99690.66;423158;1310;141782;-61
2021/11/13 10:00:14;;;;;;;36.20;25.30;;;;;;;5.01;82.82;99683.05;433314;1312;144074;-61
2021/11/13 10:10:31;;;;;;;36.40;27.90;;;;;;;5.28;82.37;99680.94;434728;1312;145201;-61
2021/11/13 10:20:40;;;;;;;39.60;25.70;;;;;;;5.39;81.69;99675.80;434315;1312;142133;-62
2021/11/13 10:30:44;;;;;;;;;;;;;;;5.72;81.27;99669.73;435119;1312;145328;-61
2021/11/13 10:40:56;;;;;;;37.30;26.30;;;;;;;5.52;80.90;99668.67;427356;1310;128317;-64
2021/11/13 10:51:11;;;;;;;33.10;25.40;;;;;;;5.09;80.80;99666.25;429113;1310;141993;-61
2021/11/13 11:01:39;;;;;;;35.50;26.50;;;;;;;5.10;81.41;99663.61;434158;1312;143297;-61
2021/11/13 11:11:45;;;;;;;37.10;25.40;;;;;;;5.51;81.11;99661.92;434435;1309;142522;-62
2021/11/13 11:21:56;;;;;;;38.30;28.60;;;;;;;5.50;80.78;99655.36;433966;1310;142751;-62
2021/11/13 11:32:06;;;;;;;42.50;27.30;;;;;;;5.41;80.67;99657.30;432491;1310;141878;-62
2021/11/13 11:42:13;;;;;;;39.20;26.80;;;;;;;5.09;80.68;99651.31;434409;1310;143463;-61
2021/11/13 11:52:22;;;;;;;38.00;27.40;;;;;;;4.84;80.93;99653.68;435155;1310;143299;-61
2021/11/13 12:02:39;;;;;;;37.70;27.30;;;;;;;4.48;81.17;99648.84;434050;1312;142596;-62
2021/11/13 12:13:02;;;;;;;39.30;27.40;;;;;;;4.32;81.21;99639.70;429616;1312;142100;-61
2021/11/13 12:23:28;;;;;;;43.30;30.90;;;;;;;4.26;81.54;99645.82;435216;1309;142252;-61
2021/11/13 12:33:49;;;;;;;43.30;30.40;;;;;;;4.23;81.57;99641.97;433526;1309;142368;-62
2021/11/13 12:44:13;;;;;;;45.20;31.00;;;;;;;4.33;81.54;99644.16;421127;1310;141254;-60
2021/11/13 12:54:20;;;;;;;55.20;38.50;;;;;;;4.44;81.92;99638.55;420243;1312;141807;-61
2021/11/13 13:04:30;;;;;;;47.20;32.70;;;;;;;4.43;81.59;99631.15;427046;1310;141767;-61
2021/11/13 13:14:36;;;;;;;45.50;30.40;;;;;;;4.20;81.82;99633.40;422729;1310;142075;-61
2021/11/13 13:24:48;;;;;;;48.90;33.20;;;;;;;3.94;81.71;99633.46;419965;1312;141270;-61
2021/11/13 13:34:58;;;;;;;50.10;35.60;;;;;;;3.93;82.20;99631.05;419928;1310;140822;-61
2021/11/13 13:45:07;;;;;;;49.40;33.30;;;;;;;4.01;81.95;99626.61;424783;1306;144853;-60
2021/11/13 13:55:16;;;;;;;48.50;35.20;;;;;;;4.08;82.14;99631.39;430710;1309;141369;-62
2021/11/13 14:05:25;;;;;;;49.90;34.90;;;;;;;4.16;81.87;99630.23;434050;1309;143620;-62
2021/11/13 14:15:35;;;;;;;50.90;36.90;;;;;;;4.12;81.74;99634.39;434086;1307;142167;-62
2021/11/13 14:25:45;;;;;;;56.30;40.00;;;;;;;3.93;81.83;99634.20;434310;1312;142169;-62
2021/11/13 14:35:52;;;;;;;48.80;36.70;;;;;;;3.83;82.10;99631.24;432712;1309;142510;-62
2021/11/13 14:45:59;;;;;;;52.90;37.20;;;;;;;3.75;82.12;99630.30;435182;1312;142848;-60
2021/11/13 14:56:06;;;;;;;51.30;37.90;;;;;;;3.67;82.72;99622.96;434885;1311;142106;-61
2021/11/13 15:06:18;;;;;;;52.20;37.40;;;;;;;3.55;82.74;99619.75;434264;1310;141583;-62
2021/11/13 15:16:27;;;;;;;58.80;38.80;;;;;;;3.45;82.95;99623.02;433900;1312;142293;-62
2021/11/13 15:26:35;;;;;;;52.00;35.30;;;;;;;3.39;83.17;99623.23;434564;1312;143017;-60
2021/11/13 15:36:40;;;;;;;59.90;36.00;;;;;;;3.32;83.23;99624.69;435140;1311;142073;-61
2021/11/13 15:46:47;;;;;;;58.10;38.20;;;;;;;3.33;83.51;99627.92;434194;1311;141996;-62
2021/11/13 15:56:53;;;;;;;59.50;38.40;;;;;;;3.34;83.49;99626.33;433153;1312;144413;-62
2021/11/13 16:06:59;;;;;;;58.00;37.40;;;;;;;3.31;83.39;99627.98;434386;1312;143202;-62
2021/11/13 16:17:05;;;;;;;59.80;37.80;;;;;;;3.32;83.73;99631.42;433359;1313;142556;-61
2021/11/13 16:27:11;;;;;;;53.90;34.30;;;;;;;3.35;83.73;99637.02;432645;1310;208000;-61
2021/11/13 16:37:19;;;;;;;64.30;37.20;;;;;;;3.36;83.53;99626.59;433282;1312;141639;-62
2021/11/13 16:47:25;;;;;;;57.50;35.20;;;;;;;3.35;83.52;99635.15;433551;1312;141635;-62
2021/11/13 16:57:31;;;;;;;53.40;36.00;;;;;;;3.39;83.78;99637.61;433353;1303;143233;-61
2021/11/13 17:07:37;;;;;;;54.30;36.20;;;;;;;3.39;83.71;99641.76;419541;1312;141463;-62
2021/11/13 17:17:44;;;;;;;59.90;40.20;;;;;;;3.39;83.75;99644.19;418024;1314;143707;-62
2021/11/13 17:27:52;;;;;;;66.50;41.60;;;;;;;3.41;83.76;99641.67;434728;1313;142869;-61
2021/11/13 17:37:58;;;;;;;61.40;41.20;;;;;;;3.38;83.66;99640.06;432075;1312;140996;-61
2021/11/13 17:48:06;;;;;;;62.90;37.80;;;;;;;3.35;83.57;99636.84;434004;1308;142434;-61
2021/11/13 17:58:12;;;;;;;56.80;37.40;;;;;;;3.33;83.59;99646.27;434719;1313;142585;-62
2021/11/13 18:08:20;;;;;;;65.50;39.30;;;;;;;3.35;83.52;99653.47;433316;1313;141782;-62
2021/11/13 18:18:26;;;;;;;55.10;35.00;;;;;;;3.45;83.50;99655.91;430608;1311;142243;-61
2021/11/13 18:28:32;;;;;;;53.20;35.20;;;;;;;3.50;83.38;99656.08;434649;1313;141586;-61
2021/11/13 18:38:38;;;;;;;58.10;36.20;;;;;;;3.48;83.16;99659.45;430647;1312;151899;-61
2021/11/13 18:48:44;;;;;;;57.60;34.90;;;;;;;3.42;82.89;99659.13;434789;1312;142603;-62
2021/11/13 18:58:50;;;;;;;54.20;34.30;;;;;;;3.41;83.29;99663.16;434708;1308;143132;-61
2021/11/13 19:08:57;;;;;;;51.40;34.00;;;;;;;3.30;82.76;99667.98;429736;1312;141495;-61
2021/11/13 19:19:03;;;;;;;52.80;31.80;;;;;;;3.18;82.83;99666.14;426511;1307;141672;-60
2021/11/13 19:29:09;;;;;;;58.00;35.70;;;;;;;3.14;83.01;99682.70;434960;1312;142311;-61
2021/11/13 19:39:16;;;;;;;58.60;35.70;;;;;;;3.07;82.79;99682.73;434226;1312;142534;-61
2021/11/13 19:49:22;;;;;;;56.80;36.10;;;;;;;2.98;82.82;99683.39;434618;1312;141563;-61
2021/11/13 19:59:49;;;;;;;55.80;34.20;;;;;;;2.94;82.60;99685.39;432818;1313;142766;-61
2021/11/13 20:09:54;;;;;;;54.40;35.70;;;;;;;2.92;82.75;99683.20;432991;1312;141998;-60
2021/11/13 20:20:02;;;;;;;60.40;35.90;;;;;;;2.88;82.83;99694.20;434733;1312;142412;-60
2021/11/13 20:30:11;;;;;;;57.20;35.80;;;;;;;2.80;82.68;99698.61;433939;1308;143312;-61
2021/11/13 20:40:25;;;;;;;63.60;40.40;;;;;;;2.62;82.81;99705.70;432631;1311;141754;-62
2021/11/13 20:50:34;;;;;;;66.30;41.00;;;;;;;2.48;82.85;99696.76;434736;1312;143586;-61
2021/11/13 21:00:43;;;;;;;63.80;41.70;;;;;;;2.40;82.95;99693.39;432994;1312;144139;-62
2021/11/13 21:10:50;;;;;;;69.90;41.90;;;;;;;2.33;83.19;99695.12;433702;1312;141811;-60
2021/11/13 21:20:57;;;;;;;67.30;40.50;;;;;;;2.29;83.26;99688.32;432417;1312;142302;-61
2021/11/13 21:31:03;;;;;;;;;;;;;;;2.20;83.40;99693.92;433599;1310;141421;-62
2021/11/13 21:41:15;;;;;;;73.50;42.70;;;;;;;2.15;83.46;99695.11;433923;1312;127636;-61
2021/11/13 21:51:21;;;;;;;78.50;39.50;;;;;;;2.08;83.61;99696.67;433852;1312;142035;-62
2021/11/13 22:01:27;;;;;;;78.40;42.00;;;;;;;1.98;83.88;99719.03;425891;1313;143403;-61
2021/11/13 22:11:34;;;;;;;62.60;32.40;;;;;;;1.97;84.24;99733.06;431612;1313;144259;-60
2021/11/13 22:21:40;;;;;;;65.30;35.80;;;;;;;1.89;84.07;99740.86;434753;1313;141273;-61
2021/11/13 22:31:47;;;;;;;60.70;34.40;;;;;;;1.90;84.15;99751.89;433195;1313;141694;-62
2021/11/13 22:41:53;;;;;;;65.30;40.40;;;;;;;1.94;84.37;99750.40;434441;1313;143035;-61
2021/11/13 22:51:59;;;;;;;71.40;37.60;;;;;;;2.02;84.71;99742.59;434786;1313;142272;-61
2021/11/13 23:02:06;;;;;;;66.00;36.50;;;;;;;2.10;84.63;99754.30;434426;1311;141588;-61
2021/11/13 23:12:13;;;;;;;62.20;34.10;;;;;;;2.19;84.63;99759.08;424992;1313;142799;-62
2021/11/13 23:22:19;;;;;;;;;;;;;;;2.22;84.48;99765.76;434844;1312;141864;-60
2021/11/13 23:32:25;;;;;;;57.10;32.80;;;;;;;2.20;84.34;99755.58;432294;1312;127544;-60
2021/11/13 23:42:31;;;;;;;54.90;30.80;;;;;;;2.17;84.35;99755.15;433963;1312;141721;-60
2021/11/13 23:52:37;;;;;;;57.00;31.10;;;;;;;2.18;84.38;99754.09;432530;1313;141302;-62
